アルハンゲリスク の空港の天気 - METARとTAF

Arhangel'Sk ( ULAA / ARH ) - ロシア アルハンゲリスク
飛行場実況気象(Metar)
観測時間01/19 22:00 MSK (01/19 19:00 UTC)
風向・風速南南東 4m/s
視程10km以上
天気現象弱いしゅう雪
全天を覆う雲 雲底高度 240m
気温-6℃
湿度100%
気圧1021hPa
METARULAA 191900Z 15004MPS 110V210 9999 -SHSN OVC008CB M06/M06 Q1021 R08/490536 NOSIG RMK QFE765/1020
過去の天気等 Google飛行場航空写真 Wunderground天気予報

過去48時間のMETAR

飛行場予報(TAF)
発表時間: 1/19 20:00 MSK (1/19 17:00 UTC)
予報対象時間: 19日21時 MSK ~ 20日21時 MSK
風向・風速南南東 6m/s
視程5,000m
天気現象弱い雪
全天の8割程度の雲 雲底高度 150m
全天の8割程度の雲 雲底高度 340m
19日21時 MSK ~ 19日24時 MSK に一時的に
風向・風速南 4m/s 瞬間風速 11m/s
視程700m
天気現象強いしゅう雪
全天の8割程度の雲 雲底高度 90m
全天の8割程度の積乱雲 雲底高度 340m
20日0時 MSK ~ 20日6時 MSK に一時的に
風向・風速南 7m/s
視程3,100m
天気現象弱いしゅう雪 もや
全天の4割程度の雲 雲底高度 210m
全天の8割程度の積乱雲 雲底高度 340m
TAF ULAA 191700Z 1918/2018 15006MPS 5000 -SN BKN005 BKN011
TEMPO 1918/1921 17004G11MPS 0700 +SHSN BKN003 BKN011CB
TEMPO 1921/2003 19007MPS 3100 -SHSN BR SCT007 BKN011CB